createdAt,value
2019-05-06T00:02:17.851Z,52.23
2019-05-06T00:04:46.926Z,52.36
2019-05-06T00:07:15.968Z,52.27
2019-05-06T00:09:45.038Z,52.58
2019-05-06T00:12:14.512Z,52.88
2019-05-06T00:14:43.789Z,52.90
2019-05-06T00:17:14.548Z,53.31
2019-05-06T00:19:44.770Z,53.40
2019-05-06T00:22:14.267Z,53.26
2019-05-06T00:24:56.410Z,53.45
2019-05-06T00:27:40.977Z,53.67
2019-05-06T00:30:09.971Z,53.86
2019-05-06T00:32:39.022Z,53.73
2019-05-06T00:35:08.204Z,53.94
2019-05-06T00:37:37.249Z,53.91
2019-05-06T00:40:14.128Z,54.03
2019-05-06T00:42:54.322Z,54.34
2019-05-06T00:45:24.382Z,54.40
2019-05-06T00:47:53.677Z,54.58
2019-05-06T00:50:23.978Z,54.76
2019-05-06T00:52:54.193Z,54.86
2019-05-06T00:55:24.156Z,55.13
2019-05-06T00:57:54.450Z,55.18
2019-05-06T01:00:28.395Z,55.38
2019-05-06T01:02:57.447Z,55.77
2019-05-06T01:05:26.528Z,56.08
2019-05-06T01:07:55.570Z,56.27
2019-05-06T01:10:24.949Z,56.39
2019-05-06T01:13:11.981Z,56.60
2019-05-06T01:15:41.066Z,56.66
2019-05-06T01:18:10.096Z,56.76
2019-05-06T01:20:39.176Z,56.90
2019-05-06T01:23:08.223Z,56.99
2019-05-06T01:25:37.362Z,57.27
2019-05-06T01:28:06.420Z,57.40
2019-05-06T01:30:35.505Z,57.25
2019-05-06T01:33:04.666Z,57.53
2019-05-06T01:35:35.177Z,57.65
2019-05-06T01:38:38.936Z,57.64
2019-05-06T01:41:33.854Z,57.56
2019-05-06T01:44:04.244Z,58.09
2019-05-06T01:46:33.994Z,58.13
2019-05-06T01:49:04.218Z,58.25
2019-05-06T01:51:34.852Z,58.46
2019-05-06T01:54:04.062Z,58.54
2019-05-06T01:56:33.661Z,58.72
2019-05-06T01:59:04.525Z,58.76
2019-05-06T02:01:34.275Z,58.90
2019-05-06T02:04:04.432Z,59.12
2019-05-06T02:06:34.266Z,59.01
2019-05-06T02:09:04.639Z,59.03
2019-05-06T02:11:33.930Z,59.05
2019-05-06T02:14:04.830Z,59.17
2019-05-06T02:16:34.432Z,59.24
2019-05-06T02:19:04.147Z,59.39
2019-05-06T02:21:56.834Z,59.56
2019-05-06T02:24:37.663Z,59.60
2019-05-06T02:27:07.231Z,59.67
2019-05-06T02:29:40.875Z,59.89
2019-05-06T02:32:30.797Z,60.11
2019-05-06T02:35:06.125Z,60.13
2019-05-06T02:37:40.124Z,60.30
2019-05-06T02:40:20.098Z,60.23
2019-05-06T02:42:49.174Z,60.39
2019-05-06T02:45:18.238Z,60.50
2019-05-06T02:48:06.347Z,60.60
2019-05-06T02:50:53.954Z,60.79
2019-05-06T02:53:25.129Z,61.12
2019-05-06T02:55:54.119Z,61.21
2019-05-06T02:58:23.847Z,61.48
2019-05-06T03:00:53.962Z,61.65
2019-05-06T03:03:23.436Z,61.70
2019-05-06T03:05:53.396Z,61.95
2019-05-06T03:08:23.738Z,62.20
2019-05-06T03:10:53.538Z,62.46
2019-05-06T03:13:23.778Z,62.70
2019-05-06T03:15:54.324Z,62.92
2019-05-06T03:18:23.907Z,62.98
2019-05-06T03:21:07.434Z,63.28
2019-05-06T03:23:39.163Z,63.37
2019-05-06T03:26:08.221Z,63.38
2019-05-06T03:28:37.300Z,63.39
2019-05-06T03:31:07.828Z,63.48
2019-05-06T03:33:56.809Z,63.60
2019-05-06T03:36:22.651Z,63.68
2019-05-06T03:38:38.935Z,63.75
2019-05-06T03:41:07.991Z,63.99
2019-05-06T03:43:37.076Z,63.99
2019-05-06T03:46:14.311Z,64.05
2019-05-06T03:48:45.730Z,64.25
2019-05-06T03:51:14.788Z,64.42
2019-05-06T03:53:44.463Z,64.50
2019-05-06T03:56:19.262Z,64.79
2019-05-06T03:58:45.314Z,64.87
2019-05-06T04:01:15.365Z,65.05
2019-05-06T04:03:52.018Z,65.28
2019-05-06T04:06:15.427Z,65.39
2019-05-06T04:08:44.519Z,65.61
2019-05-06T04:11:16.010Z,65.81
2019-05-06T04:13:46.067Z,66.04
2019-05-06T04:16:23.099Z,65.94
2019-05-06T04:19:05.546Z,65.83
2019-05-06T04:21:43.695Z,65.95
2019-05-06T04:24:26.174Z,66.14
2019-05-06T04:27:06.148Z,66.25
2019-05-06T04:29:36.233Z,66.47
2019-05-06T04:32:05.389Z,66.47
2019-05-06T04:34:34.464Z,66.46
2019-05-06T04:37:03.759Z,66.59
2019-05-06T04:39:33.319Z,66.61
2019-05-06T04:42:03.534Z,66.63
2019-05-06T04:44:33.248Z,66.84
2019-05-06T04:47:05.565Z,67.12
2019-05-06T04:49:34.739Z,67.52
2019-05-06T04:52:04.899Z,67.73
2019-05-06T04:54:33.974Z,68.00
2019-05-06T04:57:05.114Z,68.31
2019-05-06T04:59:35.221Z,68.76
2019-05-06T05:02:04.272Z,69.24
2019-05-06T05:04:36.834Z,69.66
2019-05-06T05:07:04.983Z,69.87
2019-05-06T05:09:34.369Z,70.15
2019-05-06T05:12:14.062Z,70.60
2019-05-06T05:15:11.848Z,70.95
2019-05-06T05:17:48.473Z,71.18
2019-05-06T05:20:17.542Z,71.41
2019-05-06T05:22:46.605Z,71.70
2019-05-06T05:25:15.681Z,71.91
2019-05-06T05:27:44.878Z,72.04
2019-05-06T05:30:13.951Z,72.44
2019-05-06T05:32:43.006Z,72.57
2019-05-06T05:35:12.717Z,72.77
2019-05-06T05:37:42.126Z,72.73
2019-05-06T05:40:13.022Z,72.76
2019-05-06T05:43:07.607Z,72.81
2019-05-06T05:45:36.687Z,73.00
2019-05-06T05:48:12.415Z,72.95
2019-05-06T05:50:42.338Z,72.89
2019-05-06T05:53:12.058Z,72.94
2019-05-06T05:55:42.399Z,72.61
2019-05-06T05:58:12.993Z,72.64
2019-05-06T06:00:42.651Z,72.56
2019-05-06T06:03:12.671Z,72.32
2019-05-06T06:05:42.801Z,72.11
2019-05-06T06:08:13.012Z,71.90
2019-05-06T06:10:56.800Z,71.63
2019-05-06T06:13:25.887Z,71.50
2019-05-06T06:16:17.573Z,70.94
2019-05-06T06:19:18.082Z,70.92
2019-05-06T06:21:57.801Z,70.73
2019-05-06T06:24:32.658Z,70.69
2019-05-06T06:27:03.050Z,70.71
2019-05-06T06:29:32.501Z,70.53
2019-05-06T06:32:23.019Z,70.37
2019-05-06T06:35:19.107Z,70.36
2019-05-06T06:37:56.683Z,70.01
2019-05-06T06:40:27.955Z,69.61
2019-05-06T06:43:02.211Z,69.20
2019-05-06T06:45:32.600Z,68.82
2019-05-06T06:48:03.102Z,68.66
2019-05-06T06:50:32.973Z,68.83
2019-05-06T06:53:03.026Z,69.02
2019-05-06T06:55:32.253Z,69.03
2019-05-06T06:58:25.904Z,68.93
2019-05-06T07:01:16.667Z,68.37
2019-05-06T07:04:03.203Z,67.77
2019-05-06T07:06:39.675Z,67.06
2019-05-06T07:09:09.271Z,66.73
2019-05-06T07:11:38.372Z,66.52
2019-05-06T07:14:07.426Z,66.02
2019-05-06T07:16:36.512Z,65.95
2019-05-06T07:19:05.572Z,65.51
2019-05-06T07:21:39.557Z,64.62
2019-05-06T07:24:08.982Z,64.26
2019-05-06T07:26:45.647Z,63.85
2019-05-06T07:29:23.138Z,63.50
2019-05-06T07:31:45.539Z,64.02
2019-05-06T07:34:14.602Z,64.05
2019-05-06T07:36:43.687Z,63.37
2019-05-06T07:39:15.274Z,63.26
2019-05-06T07:42:02.608Z,62.82
2019-05-06T07:44:49.086Z,62.13
2019-05-06T07:47:23.982Z,62.10
2019-05-06T07:49:53.328Z,62.04
2019-05-06T07:52:23.037Z,62.00
2019-05-06T07:54:53.364Z,61.79
2019-05-06T07:57:22.598Z,61.71
2019-05-06T07:59:52.516Z,60.85
2019-05-06T08:02:22.886Z,60.81
2019-05-06T08:04:53.208Z,60.88
2019-05-06T08:07:22.547Z,61.09
2019-05-06T08:09:52.904Z,60.51
2019-05-06T08:12:22.464Z,59.06
2019-05-06T08:14:52.406Z,57.75
2019-05-06T08:17:27.015Z,57.18
2019-05-06T08:19:56.072Z,57.30
2019-05-06T08:22:52.963Z,57.32
2019-05-06T08:25:23.025Z,57.01
2019-05-06T08:27:53.246Z,56.70
2019-05-06T08:30:23.058Z,55.76
2019-05-06T08:32:52.850Z,55.47
2019-05-06T08:35:22.740Z,54.64
2019-05-06T08:37:53.148Z,53.74
2019-05-06T08:40:23.689Z,53.24
2019-05-06T08:42:53.317Z,52.37
2019-05-06T08:45:22.395Z,51.67
2019-05-06T08:47:52.355Z,52.21
2019-05-06T08:50:32.500Z,52.14
2019-05-06T08:53:24.361Z,50.93
2019-05-06T08:55:53.519Z,51.70
2019-05-06T08:58:43.149Z,52.44
2019-05-06T09:01:14.692Z,52.85
2019-05-06T09:03:43.792Z,52.72
2019-05-06T09:06:26.891Z,52.10
2019-05-06T09:08:43.605Z,51.70
2019-05-06T09:11:12.687Z,50.13
2019-05-06T09:13:42.879Z,50.82
2019-05-06T09:16:13.026Z,49.44
2019-05-06T09:18:42.614Z,49.28
2019-05-06T09:21:12.359Z,50.08
2019-05-06T09:23:42.386Z,50.01
2019-05-06T09:26:13.555Z,48.42
2019-05-06T09:28:54.390Z,48.07
2019-05-06T09:31:27.317Z,46.80
2019-05-06T09:34:02.801Z,46.81
2019-05-06T09:36:41.295Z,46.49
2019-05-06T09:39:02.859Z,45.90
2019-05-06T09:41:32.505Z,45.14
2019-05-06T09:44:03.117Z,44.86
2019-05-06T09:46:32.303Z,45.77
2019-05-06T09:49:20.319Z,46.25
2019-05-06T09:51:49.419Z,46.83
2019-05-06T09:54:42.608Z,46.92
2019-05-06T09:57:17.434Z,47.59
2019-05-06T09:59:46.624Z,47.16
2019-05-06T10:02:15.686Z,47.37
2019-05-06T10:04:44.770Z,47.31
2019-05-06T10:07:13.822Z,46.70
2019-05-06T10:09:43.601Z,46.26
2019-05-06T10:12:12.977Z,46.38
2019-05-06T10:14:43.357Z,47.88
2019-05-06T10:17:13.188Z,46.33
2019-05-06T10:19:42.895Z,45.91
2019-05-06T10:22:12.774Z,44.39
2019-05-06T10:24:43.085Z,44.49
2019-05-06T10:27:12.532Z,46.02
2019-05-06T10:30:03.000Z,45.67
2019-05-06T10:32:56.545Z,44.68
2019-05-06T10:35:29.216Z,46.26
2019-05-06T10:38:23.147Z,44.54
2019-05-06T10:41:03.607Z,43.45
2019-05-06T10:43:54.886Z,43.73
2019-05-06T10:46:23.971Z,43.04
2019-05-06T10:48:53.958Z,41.54
2019-05-06T10:51:35.471Z,40.90
2019-05-06T10:54:04.646Z,41.72
2019-05-06T10:56:57.326Z,42.07
2019-05-06T10:59:26.264Z,42.54
2019-05-06T11:01:57.739Z,41.66
2019-05-06T11:04:26.808Z,42.36
2019-05-06T11:06:55.838Z,41.94
2019-05-06T11:09:24.873Z,41.56
2019-05-06T11:11:53.975Z,41.27
2019-05-06T11:14:23.054Z,40.62
2019-05-06T11:16:52.127Z,40.04
2019-05-06T11:19:22.431Z,40.49
2019-05-06T11:21:53.068Z,40.82
2019-05-06T11:24:23.155Z,41.61
2019-05-06T11:26:53.353Z,40.80
2019-05-06T11:29:27.348Z,40.96
2019-05-06T11:32:14.173Z,40.91
2019-05-06T11:34:54.849Z,41.72
2019-05-06T11:37:45.814Z,41.63
2019-05-06T11:40:07.408Z,40.23
2019-05-06T11:42:36.499Z,40.63
2019-05-06T11:45:06.860Z,41.17
2019-05-06T11:47:35.937Z,40.69
2019-05-06T11:50:05.776Z,40.33
2019-05-06T11:52:34.874Z,39.36
2019-05-06T11:55:03.976Z,39.41
2019-05-06T11:57:33.040Z,39.27
2019-05-06T12:00:03.138Z,39.72
2019-05-06T12:02:33.029Z,39.91
2019-05-06T12:05:02.442Z,40.03
2019-05-06T12:07:33.246Z,40.13
2019-05-06T12:10:02.644Z,40.11
2019-05-06T12:12:31.700Z,40.63
2019-05-06T12:15:03.065Z,40.89
2019-05-06T12:17:31.595Z,40.18
2019-05-06T12:20:02.977Z,38.85
2019-05-06T12:22:37.355Z,38.98
2019-05-06T12:25:14.458Z,39.27
2019-05-06T12:27:46.671Z,38.89
2019-05-06T12:30:18.168Z,39.39
2019-05-06T12:33:05.106Z,39.52
2019-05-06T12:35:35.675Z,40.09
2019-05-06T12:38:23.780Z,40.59
2019-05-06T12:40:37.367Z,41.19
2019-05-06T12:43:24.310Z,40.72
2019-05-06T12:45:55.732Z,40.28
2019-05-06T12:48:33.049Z,39.59
2019-05-06T12:51:03.241Z,40.24
2019-05-06T12:53:32.858Z,40.86
2019-05-06T12:56:03.182Z,40.81
2019-05-06T12:58:32.450Z,40.83
2019-05-06T13:01:04.122Z,41.30
2019-05-06T13:03:34.720Z,41.45
2019-05-06T13:06:07.579Z,39.98
2019-05-06T13:08:52.221Z,40.55
2019-05-06T13:11:05.118Z,39.13
2019-05-06T13:13:34.200Z,37.88
2019-05-06T13:16:03.285Z,37.89
2019-05-06T13:18:32.827Z,38.42
2019-05-06T13:21:06.302Z,40.17
2019-05-06T13:23:41.758Z,39.75
2019-05-06T13:26:12.876Z,38.93
2019-05-06T13:28:45.439Z,39.39
2019-05-06T13:31:20.819Z,39.20
2019-05-06T13:33:54.548Z,37.69
2019-05-06T13:36:24.126Z,37.30
2019-05-06T13:39:09.118Z,36.91
2019-05-06T13:41:24.063Z,37.51
2019-05-06T13:43:59.065Z,37.65
2019-05-06T13:46:32.909Z,35.87
2019-05-06T13:49:19.291Z,36.85
2019-05-06T13:51:56.796Z,35.32
2019-05-06T13:54:25.880Z,36.66
2019-05-06T13:56:54.952Z,35.88
2019-05-06T13:59:24.036Z,35.64
2019-05-06T14:01:59.876Z,35.19
2019-05-06T14:04:28.961Z,35.52
2019-05-06T14:06:57.957Z,35.08
2019-05-06T14:09:31.758Z,35.92
2019-05-06T14:11:57.770Z,34.54
2019-05-06T14:14:26.824Z,35.21
2019-05-06T14:16:55.911Z,34.30
2019-05-06T14:19:24.916Z,34.67
2019-05-06T14:21:53.997Z,35.01
2019-05-06T14:24:23.081Z,34.63
2019-05-06T14:26:59.418Z,34.30
2019-05-06T14:29:33.596Z,34.01
2019-05-06T14:32:03.044Z,33.99
2019-05-06T14:34:32.626Z,34.50
2019-05-06T14:37:01.744Z,34.73
2019-05-06T14:39:49.058Z,34.21
2019-05-06T14:42:04.648Z,34.37
2019-05-06T14:44:33.721Z,33.14
2019-05-06T14:47:12.591Z,32.96
2019-05-06T14:49:43.223Z,33.69
2019-05-06T14:52:13.381Z,34.42
2019-05-06T14:54:53.255Z,34.20
2019-05-06T14:57:23.415Z,34.76
2019-05-06T14:59:55.554Z,35.21
2019-05-06T15:02:26.955Z,35.08
2019-05-06T15:04:56.381Z,35.26
2019-05-06T15:07:25.464Z,35.27
2019-05-06T15:10:07.840Z,35.62
2019-05-06T15:12:25.353Z,35.82
2019-05-06T15:14:54.406Z,35.80
2019-05-06T15:17:23.500Z,35.74
2019-05-06T15:19:52.846Z,35.75
2019-05-06T15:22:22.705Z,36.03
2019-05-06T15:24:53.528Z,35.92
2019-05-06T15:27:23.122Z,35.42
2019-05-06T15:29:54.851Z,36.10
2019-05-06T15:32:31.287Z,36.19
2019-05-06T15:35:08.561Z,36.39
2019-05-06T15:37:45.852Z,36.61
2019-05-06T15:40:15.213Z,36.58
2019-05-06T15:42:44.288Z,36.63
2019-05-06T15:45:13.546Z,36.58
2019-05-06T15:47:42.863Z,36.81
2019-05-06T15:50:12.918Z,37.27
2019-05-06T15:52:43.466Z,37.50
2019-05-06T15:55:13.266Z,37.82
2019-05-06T15:57:43.439Z,38.05
2019-05-06T16:00:15.847Z,38.48
2019-05-06T16:02:44.930Z,38.60
2019-05-06T16:05:20.204Z,38.91
2019-05-06T16:07:46.551Z,38.45
2019-05-06T16:10:17.425Z,38.88
2019-05-06T16:12:47.809Z,38.71
2019-05-06T16:15:17.062Z,38.65
2019-05-06T16:17:46.162Z,38.94
2019-05-06T16:20:16.027Z,39.05
2019-05-06T16:22:47.457Z,38.99
2019-05-06T16:25:16.592Z,39.16
2019-05-06T16:27:50.982Z,39.24
2019-05-06T16:30:18.434Z,39.69
2019-05-06T16:32:47.506Z,39.22
2019-05-06T16:35:16.574Z,39.11
2019-05-06T16:37:45.672Z,39.14
2019-05-06T16:40:15.440Z,39.33
2019-05-06T16:42:46.001Z,39.60
2019-05-06T16:45:18.649Z,39.77
2019-05-06T16:47:46.682Z,39.84
2019-05-06T16:50:17.858Z,40.21
2019-05-06T16:52:46.937Z,40.25
2019-05-06T16:55:20.125Z,40.02
2019-05-06T16:58:06.288Z,40.11
2019-05-06T17:00:36.717Z,40.24
2019-05-06T17:03:14.561Z,40.70
2019-05-06T17:06:01.559Z,41.08
2019-05-06T17:08:33.313Z,41.72
2019-05-06T17:11:04.409Z,42.83
2019-05-06T17:13:34.046Z,43.50
2019-05-06T17:16:03.050Z,44.25
2019-05-06T17:18:33.062Z,44.96
2019-05-06T17:21:02.167Z,45.55
2019-05-06T17:23:32.392Z,46.38
2019-05-06T17:26:01.681Z,47.01
2019-05-06T17:28:52.705Z,47.54
2019-05-06T17:31:42.396Z,48.16
2019-05-06T17:34:14.102Z,48.69
2019-05-06T17:36:43.111Z,49.15
2019-05-06T17:39:12.199Z,49.31
2019-05-06T17:41:48.342Z,49.57
2019-05-06T17:44:13.142Z,49.83
2019-05-06T17:47:02.645Z,50.15
2019-05-06T17:49:32.072Z,50.24
2019-05-06T17:52:06.784Z,50.53
2019-05-06T17:54:35.882Z,50.59
2019-05-06T17:57:04.949Z,50.72
2019-05-06T17:59:37.271Z,50.93
2019-05-06T18:02:08.389Z,51.03
2019-05-06T18:04:37.476Z,51.34
2019-05-06T18:07:06.539Z,51.22
2019-05-06T18:09:35.614Z,51.14
2019-05-06T18:12:04.676Z,51.43
2019-05-06T18:14:33.758Z,51.68
2019-05-06T18:17:03.592Z,51.36
2019-05-06T18:19:33.599Z,51.52
2019-05-06T18:22:02.819Z,51.51
2019-05-06T18:24:33.220Z,51.50
2019-05-06T18:27:03.867Z,51.47
2019-05-06T18:29:33.746Z,51.41
2019-05-06T18:32:03.708Z,51.15
2019-05-06T18:34:33.247Z,51.37
2019-05-06T18:37:05.624Z,51.24
2019-05-06T18:39:34.710Z,51.24
2019-05-06T18:42:16.000Z,51.32
2019-05-06T18:44:34.590Z,51.50
2019-05-06T18:47:03.656Z,51.54
2019-05-06T18:49:33.783Z,51.72
2019-05-06T18:52:03.055Z,52.06
2019-05-06T18:54:33.832Z,52.20
2019-05-06T18:57:04.897Z,52.19
2019-05-06T18:59:36.953Z,52.15
2019-05-06T19:02:05.001Z,52.16
2019-05-06T19:05:08.536Z,52.12
2019-05-06T19:07:37.586Z,52.21
2019-05-06T19:10:22.572Z,52.24
2019-05-06T19:12:52.667Z,52.18
2019-05-06T19:15:22.163Z,52.36
2019-05-06T19:17:52.647Z,52.54
2019-05-06T19:20:24.124Z,52.47
2019-05-06T19:22:53.567Z,52.25
2019-05-06T19:25:22.838Z,52.45
2019-05-06T19:35:17.151Z,52.56
2019-05-06T21:26:08.688Z,59.52
2019-05-06T21:43:45.357Z,60.20
2019-05-06T21:46:22.094Z,60.24
2019-05-06T22:02:25.955Z,60.87
2019-05-06T22:04:33.979Z,60.55
2019-05-06T22:05:57.567Z,60.92
2019-05-06T22:33:45.762Z,62.27
2019-05-06T22:40:43.114Z,62.42
2019-05-06T22:52:28.322Z,63.05
2019-05-06T22:55:58.621Z,63.20
2019-05-06T23:08:32.317Z,63.66
2019-05-06T23:11:32.895Z,63.92
2019-05-06T23:14:12.468Z,64.16
2019-05-06T23:16:58.416Z,64.55
2019-05-06T23:34:36.202Z,66.47
2019-05-06T23:44:54.721Z,67.28
2019-05-06T23:47:59.586Z,67.55
2019-05-06T23:51:04.325Z,67.86
2019-05-06T23:54:09.131Z,68.08
2019-05-06T23:56:39.907Z,68.30
2019-05-06T23:59:09.579Z,68.46
